createdAt,value
2022-10-19T00:01:32.719Z,5.93
2022-10-19T00:04:03.494Z,6.30
2022-10-19T00:06:35.576Z,5.30
2022-10-19T00:09:14.478Z,5.75
2022-10-19T00:11:43.234Z,5.40
2022-10-19T00:14:14.239Z,6.22
2022-10-19T00:16:42.771Z,6.15
2022-10-19T00:19:13.471Z,4.90
2022-10-19T00:21:40.238Z,6.55
2022-10-19T00:24:08.469Z,6.22
2022-10-19T00:26:35.255Z,6.38
2022-10-19T00:29:02.021Z,6.03
2022-10-19T00:31:28.551Z,6.50
2022-10-19T00:33:56.889Z,5.53
2022-10-19T00:36:32.360Z,6.25
2022-10-19T00:38:59.529Z,5.63
2022-10-19T00:41:30.222Z,6.60
2022-10-19T00:44:03.011Z,5.87
2022-10-19T00:46:32.750Z,6.30
2022-10-19T00:49:10.866Z,5.63
2022-10-19T00:51:41.109Z,6.20
2022-10-19T00:54:09.242Z,6.68
2022-10-19T00:56:39.671Z,5.67
2022-10-19T00:59:07.919Z,5.95
2022-10-19T01:01:34.942Z,6.50
2022-10-19T01:04:03.057Z,5.65
2022-10-19T01:06:30.257Z,5.63
2022-10-19T01:08:56.750Z,6.27
2022-10-19T01:11:32.453Z,6.85
2022-10-19T01:14:11.084Z,5.38
2022-10-19T01:17:02.558Z,6.47
2022-10-19T01:19:50.499Z,6.10
2022-10-19T01:22:29.071Z,6.37
2022-10-19T01:25:38.361Z,6.20
2022-10-19T01:28:37.070Z,5.75
2022-10-19T01:31:06.500Z,6.03
2022-10-19T01:33:42.065Z,5.78
2022-10-19T01:36:22.819Z,5.90
2022-10-19T01:38:58.476Z,6.45
2022-10-19T01:41:35.465Z,7.55
2022-10-19T01:44:10.599Z,6.25
2022-10-19T01:46:40.304Z,6.15
2022-10-19T01:49:23.545Z,5.97
2022-10-19T01:51:55.520Z,6.05
2022-10-19T01:54:24.080Z,5.45
2022-10-19T01:56:54.263Z,5.63
2022-10-19T01:59:21.446Z,5.72
2022-10-19T02:01:51.192Z,6.13
2022-10-19T02:04:21.131Z,5.78
2022-10-19T02:06:48.586Z,5.13
2022-10-19T02:09:18.259Z,5.28
2022-10-19T02:11:49.733Z,5.78
2022-10-19T02:14:22.442Z,4.83
2022-10-19T02:17:05.072Z,4.80
2022-10-19T02:19:31.683Z,5.25
2022-10-19T02:21:58.669Z,4.95
2022-10-19T02:24:25.318Z,5.55
2022-10-19T02:26:53.621Z,4.70
2022-10-19T02:29:20.614Z,4.40
2022-10-19T02:31:47.280Z,4.90
2022-10-19T02:34:14.359Z,5.10
2022-10-19T02:36:41.213Z,5.93
2022-10-19T02:39:08.863Z,4.47
2022-10-19T02:41:42.190Z,4.97
2022-10-19T02:44:24.049Z,4.30
2022-10-19T02:46:57.364Z,4.57
2022-10-19T02:49:24.724Z,5.63
2022-10-19T02:52:05.390Z,4.90
2022-10-19T02:54:32.109Z,4.88
2022-10-19T02:56:58.881Z,4.30
2022-10-19T02:59:25.639Z,5.03
2022-10-19T03:01:52.542Z,4.72
2022-10-19T03:04:19.179Z,4.20
2022-10-19T03:06:46.023Z,4.30
2022-10-19T03:09:12.626Z,3.78
2022-10-19T03:11:39.199Z,5.13
2022-10-19T03:14:05.837Z,4.28
2022-10-19T03:16:32.446Z,4.73
2022-10-19T03:18:59.006Z,4.28
2022-10-19T03:21:25.493Z,4.25
2022-10-19T03:23:52.009Z,5.22
2022-10-19T03:26:18.677Z,4.20
2022-10-19T03:28:45.339Z,4.73
2022-10-19T03:31:12.315Z,4.63
2022-10-19T03:33:39.048Z,4.40
2022-10-19T03:36:25.943Z,4.13
2022-10-19T03:38:54.071Z,4.35
2022-10-19T03:41:22.374Z,4.43
2022-10-19T03:43:49.511Z,4.20
2022-10-19T03:46:16.257Z,5.15
2022-10-19T03:48:43.217Z,5.50
2022-10-19T03:51:21.515Z,4.50
2022-10-19T03:53:51.942Z,4.80
2022-10-19T03:56:21.599Z,5.25
2022-10-19T03:58:50.128Z,5.18
2022-10-19T04:01:19.416Z,5.07
2022-10-19T04:03:45.941Z,5.22
2022-10-19T04:06:21.173Z,5.23
2022-10-19T04:08:49.890Z,6.80
2022-10-19T04:11:18.537Z,7.88
2022-10-19T04:13:47.698Z,7.20
2022-10-19T04:16:14.314Z,8.13
2022-10-19T04:18:40.865Z,7.30
2022-10-19T04:21:07.512Z,8.23
2022-10-19T04:23:35.976Z,8.15
2022-10-19T04:26:05.727Z,6.53
2022-10-19T04:28:33.028Z,6.43
2022-10-19T04:31:04.009Z,7.13
2022-10-19T04:33:30.576Z,6.50
2022-10-19T04:36:01.409Z,5.55
2022-10-19T04:38:29.317Z,6.47
2022-10-19T04:40:56.285Z,5.78
2022-10-19T04:43:23.284Z,5.93
2022-10-19T04:45:49.760Z,6.22
2022-10-19T04:48:16.347Z,6.07
2022-10-19T04:50:42.863Z,5.47
2022-10-19T04:53:09.746Z,5.40
2022-10-19T04:55:41.853Z,4.77
2022-10-19T04:58:08.710Z,5.18
2022-10-19T05:00:37.330Z,5.22
2022-10-19T05:03:04.035Z,4.60
2022-10-19T05:05:32.468Z,5.13
2022-10-19T05:07:59.150Z,4.53
2022-10-19T05:10:25.794Z,4.88
2022-10-19T05:12:52.370Z,4.30
2022-10-19T05:15:18.872Z,5.05
2022-10-19T05:17:45.442Z,5.00
2022-10-19T05:20:12.450Z,5.03
2022-10-19T05:22:39.777Z,4.38
2022-10-19T05:25:07.496Z,4.90
2022-10-19T05:27:34.356Z,4.80
2022-10-19T05:30:01.036Z,4.78
2022-10-19T05:32:28.156Z,4.70
2022-10-19T05:34:54.704Z,4.65
2022-10-19T05:37:21.800Z,4.05
2022-10-19T05:39:48.426Z,4.07
2022-10-19T05:42:15.083Z,5.55
2022-10-19T05:44:41.588Z,3.30
2022-10-19T05:47:08.237Z,4.43
2022-10-19T05:49:34.751Z,3.40
2022-10-19T05:52:01.302Z,3.63
2022-10-19T05:54:28.626Z,3.85
2022-10-19T05:56:56.025Z,3.87
2022-10-19T05:59:23.916Z,4.20
2022-10-19T06:01:50.557Z,3.25
2022-10-19T06:06:43.673Z,3.38
2022-10-19T06:09:10.469Z,3.83
2022-10-19T06:11:40.092Z,5.05
2022-10-19T06:14:11.095Z,2.95
2022-10-19T06:16:38.297Z,4.18
2022-10-19T06:19:05.969Z,3.83
2022-10-19T06:21:33.792Z,3.57
2022-10-19T06:24:03.119Z,3.30
2022-10-19T06:26:31.923Z,3.95
2022-10-19T06:29:00.552Z,4.57
2022-10-19T06:31:31.532Z,3.55
2022-10-19T06:33:58.480Z,3.63
2022-10-19T06:36:28.301Z,3.25
2022-10-19T06:38:56.513Z,3.63
2022-10-19T06:41:23.640Z,3.88
2022-10-19T06:43:51.868Z,3.63
2022-10-19T06:46:23.443Z,3.30
2022-10-19T06:49:01.274Z,3.70
2022-10-19T06:51:30.395Z,3.60
2022-10-19T06:53:57.638Z,3.85
2022-10-19T06:56:26.692Z,3.55
2022-10-19T06:58:54.193Z,3.40
2022-10-19T07:01:21.261Z,4.07
2022-10-19T07:03:47.981Z,3.92
2022-10-19T07:06:15.656Z,3.75
2022-10-19T07:08:43.281Z,4.65
2022-10-19T07:11:12.800Z,4.00
2022-10-19T07:13:39.550Z,3.92
2022-10-19T07:16:14.662Z,4.03
2022-10-19T07:18:44.972Z,4.10
2022-10-19T07:21:14.330Z,5.25
2022-10-19T07:23:42.758Z,4.30
2022-10-19T07:26:18.053Z,4.38
2022-10-19T07:28:46.987Z,4.45
2022-10-19T07:31:17.858Z,3.25
2022-10-19T07:33:44.773Z,4.00
2022-10-19T07:36:13.259Z,4.23
2022-10-19T07:38:40.574Z,3.25
2022-10-19T07:41:16.339Z,3.80
2022-10-19T07:43:44.745Z,3.67
2022-10-19T07:46:14.877Z,3.15
2022-10-19T07:48:42.239Z,3.80
2022-10-19T07:51:10.126Z,4.13
2022-10-19T07:53:38.356Z,3.33
2022-10-19T07:56:08.862Z,3.20
2022-10-19T07:58:36.881Z,3.67
2022-10-19T08:01:05.767Z,3.13
2022-10-19T08:06:20.308Z,3.17
2022-10-19T08:08:48.368Z,3.10
2022-10-19T08:11:35.062Z,2.97
2022-10-19T08:14:05.020Z,2.60
2022-10-19T08:16:38.869Z,2.70
2022-10-19T08:19:08.248Z,2.70
2022-10-19T08:21:36.279Z,2.67
2022-10-19T08:24:03.277Z,2.30
2022-10-19T08:26:31.244Z,2.57
2022-10-19T08:29:01.780Z,2.97
2022-10-19T08:31:29.057Z,2.85
2022-10-19T08:33:55.791Z,2.65
2022-10-19T08:36:22.935Z,2.03
2022-10-19T08:38:50.367Z,2.83
2022-10-19T08:41:33.551Z,2.85
2022-10-19T08:44:18.828Z,3.47
2022-10-19T08:47:12.530Z,2.47
2022-10-19T08:49:41.699Z,2.80
2022-10-19T08:52:18.106Z,2.60
2022-10-19T08:54:59.200Z,2.40
2022-10-19T08:57:59.347Z,2.45
2022-10-19T09:00:55.286Z,2.30
2022-10-19T09:03:55.888Z,2.28
2022-10-19T09:06:25.629Z,2.80
2022-10-19T09:08:54.785Z,2.38
2022-10-19T09:11:27.398Z,2.20
2022-10-19T09:14:05.244Z,2.47
2022-10-19T09:16:33.729Z,2.00
2022-10-19T09:19:00.337Z,2.43
2022-10-19T09:21:47.080Z,2.45
2022-10-19T09:24:29.940Z,2.75
2022-10-19T09:26:59.876Z,2.17
2022-10-19T09:29:36.549Z,3.00
2022-10-19T09:32:11.707Z,2.80
2022-10-19T09:34:43.744Z,2.80
2022-10-19T09:37:18.827Z,2.58
2022-10-19T09:39:54.044Z,2.25
2022-10-19T09:42:33.660Z,2.75
2022-10-19T09:45:06.661Z,2.70
2022-10-19T09:47:39.093Z,2.80
2022-10-19T09:50:21.642Z,2.58
2022-10-19T09:52:56.540Z,2.35
2022-10-19T09:55:28.586Z,2.80
2022-10-19T09:58:08.597Z,2.67
2022-10-19T10:00:39.180Z,2.70
2022-10-19T10:03:07.506Z,2.17
2022-10-19T10:05:39.300Z,2.50
2022-10-19T10:08:18.041Z,2.42
2022-10-19T10:11:09.795Z,2.70
2022-10-19T10:13:39.593Z,2.40
2022-10-19T10:16:09.424Z,2.65
2022-10-19T10:18:40.205Z,2.65
2022-10-19T10:21:25.122Z,2.28
2022-10-19T10:24:12.490Z,2.20
2022-10-19T10:26:51.329Z,2.47
2022-10-19T10:29:35.418Z,1.95
2022-10-19T10:32:29.208Z,2.47
2022-10-19T10:34:57.293Z,2.15
2022-10-19T10:37:38.959Z,2.30
2022-10-19T10:40:19.906Z,1.98
2022-10-19T10:42:49.659Z,2.13
2022-10-19T10:45:39.719Z,2.45
2022-10-19T10:48:30.652Z,2.38
2022-10-19T10:50:59.725Z,2.57
2022-10-19T10:53:45.405Z,2.45
2022-10-19T10:56:27.059Z,1.88
2022-10-19T10:58:58.854Z,2.20
2022-10-19T11:01:32.251Z,2.53
2022-10-19T11:04:29.247Z,2.13
2022-10-19T11:07:01.027Z,2.28
2022-10-19T11:09:44.594Z,1.92
2022-10-19T11:12:16.193Z,2.28
2022-10-19T11:14:53.857Z,2.20
2022-10-19T11:17:25.497Z,2.13
2022-10-19T11:19:52.197Z,2.13
2022-10-19T11:22:24.879Z,1.90
2022-10-19T11:24:56.575Z,2.33
2022-10-19T11:28:00.549Z,2.00
2022-10-19T11:30:31.425Z,1.43
2022-10-19T11:33:26.250Z,1.85
2022-10-19T11:36:02.142Z,1.77
2022-10-19T11:39:03.267Z,1.45
2022-10-19T11:41:46.715Z,1.48
2022-10-19T11:44:37.359Z,1.80
2022-10-19T11:47:22.323Z,1.70
2022-10-19T11:50:12.802Z,2.28
2022-10-19T11:53:11.519Z,2.20
2022-10-19T11:55:55.549Z,2.00
2022-10-19T11:58:36.581Z,1.63
2022-10-19T12:01:06.066Z,1.80
2022-10-19T12:03:41.976Z,1.45
2022-10-19T12:06:09.339Z,1.60
2022-10-19T12:09:13.169Z,1.80
2022-10-19T12:11:59.732Z,2.57
2022-10-19T12:14:32.042Z,1.30
2022-10-19T12:17:05.803Z,1.90
2022-10-19T12:19:39.395Z,1.23
2022-10-19T12:22:13.506Z,1.70
2022-10-19T12:24:40.105Z,1.60
2022-10-19T12:27:07.079Z,1.60
2022-10-19T12:29:37.868Z,1.95
2022-10-19T12:32:05.915Z,2.30
2022-10-19T12:34:50.194Z,1.80
2022-10-19T12:37:40.998Z,1.60
2022-10-19T12:40:16.604Z,1.40
2022-10-19T12:42:51.633Z,2.13
2022-10-19T12:45:27.332Z,2.00
2022-10-19T12:48:21.568Z,1.70
2022-10-19T12:50:48.043Z,1.60
2022-10-19T12:53:35.945Z,1.70
2022-10-19T12:56:10.090Z,2.45
2022-10-19T12:58:48.156Z,1.80
2022-10-19T13:01:20.034Z,2.20
2022-10-19T13:03:48.419Z,1.90
2022-10-19T13:06:24.231Z,1.95
2022-10-19T13:08:53.511Z,2.15
2022-10-19T13:11:21.071Z,1.95
2022-10-19T13:13:58.613Z,1.70
2022-10-19T13:16:37.234Z,2.13
2022-10-19T13:19:12.870Z,2.20
2022-10-19T13:21:54.389Z,1.85
2022-10-19T13:24:27.059Z,2.10
2022-10-19T13:27:02.992Z,1.92
2022-10-19T13:29:39.224Z,1.90
2022-10-19T13:32:37.775Z,2.00
2022-10-19T13:35:24.033Z,1.90
2022-10-19T13:38:16.305Z,1.50
2022-10-19T13:40:49.129Z,2.10
2022-10-19T13:43:22.358Z,2.30
2022-10-19T13:46:33.787Z,1.90
2022-10-19T13:49:38.107Z,1.80
2022-10-19T13:52:07.594Z,1.92
2022-10-19T13:54:53.427Z,2.00
2022-10-19T13:57:50.136Z,2.20
2022-10-19T14:00:21.436Z,1.52
2022-10-19T14:02:55.957Z,1.90
2022-10-19T14:05:25.385Z,1.80
2022-10-19T14:08:04.085Z,2.00
2022-10-19T14:10:32.776Z,2.07
2022-10-19T14:13:06.818Z,2.67
2022-10-19T14:15:35.070Z,2.22
2022-10-19T14:18:03.821Z,1.90
2022-10-19T14:20:35.665Z,2.20
2022-10-19T14:23:23.650Z,2.40
2022-10-19T14:25:52.527Z,1.83
2022-10-19T14:28:19.362Z,1.63
2022-10-19T14:30:55.477Z,1.70
2022-10-19T14:33:22.298Z,1.83
2022-10-19T14:35:50.608Z,1.50
2022-10-19T14:38:37.178Z,2.22
2022-10-19T14:41:06.457Z,1.77
2022-10-19T14:43:34.972Z,2.58
2022-10-19T14:46:07.713Z,2.35
2022-10-19T14:48:36.340Z,2.07
2022-10-19T14:51:10.675Z,2.53
2022-10-19T14:53:42.119Z,1.85
2022-10-19T14:56:14.429Z,1.88
2022-10-19T14:58:58.014Z,2.03
2022-10-19T15:01:24.706Z,1.87
2022-10-19T15:03:51.712Z,1.90
2022-10-19T15:06:22.957Z,1.70
2022-10-19T15:08:56.504Z,1.77
2022-10-19T15:11:31.026Z,2.25
2022-10-19T15:14:05.626Z,2.03
2022-10-19T15:16:33.679Z,2.17
2022-10-19T15:19:05.660Z,1.83
2022-10-19T15:21:33.514Z,2.60
2022-10-19T15:24:21.208Z,2.58
2022-10-19T15:27:06.462Z,2.37
2022-10-19T15:29:35.093Z,3.10
2022-10-19T15:32:15.867Z,2.50
2022-10-19T15:34:45.152Z,2.40
2022-10-19T15:37:20.105Z,2.50
2022-10-19T15:39:47.491Z,2.83
2022-10-19T15:42:38.222Z,2.25
2022-10-19T15:45:35.752Z,2.70
2022-10-19T15:48:26.502Z,2.97
2022-10-19T15:50:54.038Z,3.00
2022-10-19T15:53:21.778Z,2.37
2022-10-19T15:55:49.135Z,1.80
2022-10-19T15:58:16.147Z,2.40
2022-10-19T16:00:42.809Z,3.03
2022-10-19T16:03:09.429Z,2.20
2022-10-19T16:05:36.703Z,2.27
2022-10-19T16:08:03.718Z,2.17
2022-10-19T16:10:30.266Z,2.20
2022-10-19T16:12:56.816Z,2.42
2022-10-19T16:15:24.051Z,2.30
2022-10-19T16:17:59.727Z,2.17
2022-10-19T16:20:28.471Z,3.00
2022-10-19T16:22:55.139Z,2.83
2022-10-19T16:25:21.745Z,2.03
2022-10-19T16:27:48.352Z,2.42
2022-10-19T16:30:14.986Z,2.47
2022-10-19T16:35:10.075Z,2.28
2022-10-19T16:37:37.312Z,2.53
2022-10-19T16:40:05.332Z,2.40
2022-10-19T16:42:32.774Z,2.40
2022-10-19T16:44:59.561Z,3.22
2022-10-19T16:47:26.225Z,3.03
2022-10-19T16:50:00.734Z,2.72
2022-10-19T16:52:28.991Z,3.03
2022-10-19T16:54:55.549Z,2.70
2022-10-19T16:57:22.236Z,2.70
2022-10-19T17:02:21.557Z,3.58
2022-10-19T17:04:48.212Z,3.03
2022-10-19T17:07:15.581Z,3.30
2022-10-19T17:09:43.176Z,3.28
2022-10-19T17:12:11.068Z,3.55
2022-10-19T17:14:39.989Z,2.80
2022-10-19T17:17:07.251Z,2.90
2022-10-19T17:19:34.125Z,3.57
2022-10-19T17:22:02.168Z,3.28
2022-10-19T17:24:29.252Z,3.92
2022-10-19T17:26:55.953Z,3.38
2022-10-19T17:29:22.935Z,3.83
2022-10-19T17:31:50.151Z,4.63
2022-10-19T17:34:17.618Z,3.72
2022-10-19T17:36:45.713Z,4.50
2022-10-19T17:39:18.801Z,3.17
2022-10-19T17:41:46.918Z,3.22
2022-10-19T17:44:14.493Z,3.50
2022-10-19T17:46:41.162Z,4.00
2022-10-19T17:49:07.702Z,3.50
2022-10-19T17:51:35.601Z,3.78
2022-10-19T17:54:05.551Z,4.45
2022-10-19T17:56:32.344Z,3.30
2022-10-19T17:58:59.813Z,3.25
2022-10-19T18:01:26.898Z,3.22
2022-10-19T18:03:53.951Z,3.60
2022-10-19T18:06:23.829Z,3.28
2022-10-19T18:08:54.419Z,3.60
2022-10-19T18:11:26.766Z,3.08
2022-10-19T18:13:58.411Z,3.25
2022-10-19T18:16:26.776Z,3.58
2022-10-19T18:18:55.412Z,3.85
2022-10-19T18:21:25.580Z,3.23
2022-10-19T18:23:53.686Z,3.45
2022-10-19T18:26:23.917Z,4.10
2022-10-19T18:28:55.272Z,3.60
2022-10-19T18:31:25.173Z,3.72
2022-10-19T18:34:14.241Z,3.43
2022-10-19T18:36:41.192Z,3.20
2022-10-19T18:39:07.763Z,3.38
2022-10-19T18:41:34.360Z,3.15
2022-10-19T18:44:03.753Z,2.58
2022-10-19T18:46:30.819Z,3.10
2022-10-19T18:48:57.487Z,3.67
2022-10-19T18:51:24.295Z,3.63
2022-10-19T18:53:51.158Z,3.20
2022-10-19T18:56:20.607Z,3.55
2022-10-19T18:58:47.338Z,3.53
2022-10-19T19:01:17.305Z,3.22
2022-10-19T19:03:46.358Z,3.03
2022-10-19T19:06:29.310Z,4.40
2022-10-19T19:08:57.537Z,3.20
2022-10-19T19:11:31.804Z,3.73
2022-10-19T19:14:05.114Z,3.80
2022-10-19T19:16:37.545Z,4.68
2022-10-19T19:19:05.433Z,4.22
2022-10-19T19:21:32.626Z,3.58
2022-10-19T19:24:01.471Z,3.20
2022-10-19T19:26:31.230Z,4.47
2022-10-19T19:28:58.212Z,3.83
2022-10-19T19:31:24.968Z,3.20
2022-10-19T19:33:51.688Z,3.88
2022-10-19T19:36:19.692Z,3.77
2022-10-19T19:38:48.986Z,4.00
2022-10-19T19:41:16.433Z,3.35
2022-10-19T19:43:43.810Z,3.05
2022-10-19T19:46:16.697Z,3.47
2022-10-19T19:48:46.392Z,3.50
2022-10-19T19:51:18.876Z,3.05
2022-10-19T19:53:47.391Z,3.42
2022-10-19T19:56:15.567Z,4.28
2022-10-19T19:58:43.704Z,3.50
2022-10-19T20:01:13.537Z,3.20
2022-10-19T20:03:41.111Z,3.30
2022-10-19T20:06:08.664Z,3.15
2022-10-19T20:08:36.847Z,3.92
2022-10-19T20:11:05.978Z,3.42
2022-10-19T20:13:33.169Z,3.83
2022-10-19T20:16:06.328Z,3.40
2022-10-19T20:18:32.957Z,3.55
2022-10-19T20:21:04.002Z,3.05
2022-10-19T20:23:31.280Z,3.30
2022-10-19T20:25:58.069Z,3.67
2022-10-19T20:28:27.529Z,3.60
2022-10-19T20:31:01.304Z,3.53
2022-10-19T20:33:30.411Z,3.97
2022-10-19T20:35:57.025Z,3.33
2022-10-19T20:38:23.585Z,3.83
2022-10-19T20:40:50.093Z,3.03
2022-10-19T20:43:17.606Z,3.40
2022-10-19T20:45:44.129Z,2.67
2022-10-19T20:48:10.682Z,3.20
2022-10-19T20:50:37.254Z,4.10
2022-10-19T20:53:03.748Z,3.17
2022-10-19T20:55:30.360Z,3.53
2022-10-19T20:57:56.903Z,3.85
2022-10-19T21:00:23.451Z,3.30
2022-10-19T21:02:50.103Z,3.77
2022-10-19T21:05:16.851Z,4.05
2022-10-19T21:07:43.348Z,4.20
2022-10-19T21:10:09.874Z,4.45
2022-10-19T21:12:36.725Z,3.47
2022-10-19T21:15:04.655Z,4.03
2022-10-19T21:20:02.780Z,4.22
2022-10-19T21:22:29.486Z,3.78
2022-10-19T21:24:56.848Z,4.45
2022-10-19T21:27:23.412Z,4.20
2022-10-19T21:29:49.992Z,4.10
2022-10-19T21:32:18.336Z,4.20
2022-10-19T21:34:44.885Z,3.78
2022-10-19T21:37:11.352Z,4.13
2022-10-19T21:39:39.458Z,4.90
2022-10-19T21:42:06.413Z,4.38
2022-10-19T21:44:32.963Z,5.53
2022-10-19T21:46:59.531Z,3.35
2022-10-19T21:49:26.214Z,4.38
2022-10-19T21:51:54.572Z,5.40
2022-10-19T21:54:25.061Z,4.30
2022-10-19T21:56:53.199Z,4.70
2022-10-19T21:59:19.920Z,4.72
2022-10-19T22:01:46.439Z,4.90
2022-10-19T22:04:15.102Z,5.37
2022-10-19T22:06:42.270Z,4.70
2022-10-19T22:09:12.396Z,5.65
2022-10-19T22:11:39.205Z,4.65
2022-10-19T22:14:05.917Z,4.63
2022-10-19T22:16:35.211Z,5.80
2022-10-19T22:19:01.922Z,4.38
2022-10-19T22:21:30.777Z,4.75
2022-10-19T22:24:07.027Z,4.22
2022-10-19T22:26:40.707Z,4.35
2022-10-19T22:29:08.187Z,6.03
2022-10-19T22:31:36.479Z,5.60
2022-10-19T22:34:09.311Z,4.68
2022-10-19T22:36:36.276Z,4.97
2022-10-19T22:39:03.348Z,5.10
2022-10-19T22:42:26.448Z,5.03
2022-10-19T22:44:53.015Z,5.30
2022-10-19T22:47:19.545Z,6.22
2022-10-19T22:49:46.182Z,5.30
2022-10-19T22:52:12.885Z,5.85
2022-10-19T22:54:39.463Z,5.63
2022-10-19T22:57:06.063Z,4.95
2022-10-19T22:59:33.220Z,5.05
2022-10-19T23:01:59.939Z,5.28
2022-10-19T23:04:26.644Z,5.57
2022-10-19T23:06:53.227Z,5.90
2022-10-19T23:09:19.828Z,5.38
2022-10-19T23:11:46.605Z,4.75
2022-10-19T23:14:13.130Z,6.10
2022-10-19T23:16:39.721Z,6.32
2022-10-19T23:19:06.311Z,5.73
2022-10-19T23:21:32.952Z,6.13
2022-10-19T23:23:59.485Z,5.95
2022-10-19T23:26:26.049Z,5.93
2022-10-19T23:28:52.721Z,6.53
2022-10-19T23:31:24.440Z,6.63
2022-10-19T23:33:51.922Z,6.25
2022-10-19T23:36:24.077Z,6.22
2022-10-19T23:38:52.408Z,6.40
2022-10-19T23:41:20.029Z,6.25
2022-10-19T23:43:46.816Z,5.73
2022-10-19T23:46:14.177Z,6.85
2022-10-19T23:48:41.896Z,6.53
2022-10-19T23:51:14.485Z,6.40
2022-10-19T23:53:43.945Z,7.03
2022-10-19T23:56:16.957Z,7.83
2022-10-19T23:58:44.007Z,6.35
